createdAt,value
2023-03-07T00:01:03.337Z,94379
2023-03-07T00:02:12.073Z,94380
2023-03-07T00:03:21.725Z,94381
2023-03-07T00:04:31.380Z,94381
2023-03-07T00:05:40.473Z,94373
2023-03-07T00:06:50.164Z,94376
2023-03-07T00:08:00.429Z,94379
2023-03-07T00:09:10.080Z,94377
2023-03-07T00:10:19.774Z,94378
2023-03-07T00:11:29.451Z,94374
2023-03-07T00:12:39.223Z,94382
2023-03-07T00:13:48.905Z,94375
2023-03-07T00:14:58.547Z,94378
2023-03-07T00:16:09.275Z,94379
2023-03-07T00:17:17.962Z,94378
2023-03-07T00:18:26.655Z,94378
2023-03-07T00:19:36.314Z,94378
2023-03-07T00:20:45.987Z,94373
2023-03-07T00:21:54.652Z,94376
2023-03-07T00:23:04.320Z,94376
2023-03-07T00:24:11.991Z,94374
2023-03-07T00:25:20.639Z,94379
2023-03-07T00:26:29.353Z,94382
2023-03-07T00:27:38.049Z,94382
2023-03-07T00:28:47.695Z,94372
2023-03-07T00:29:56.384Z,94367
2023-03-07T00:31:05.172Z,94367
2023-03-07T00:32:14.983Z,94372
2023-03-07T00:33:23.664Z,94367
2023-03-07T00:34:33.355Z,94367
2023-03-07T00:35:42.161Z,94364
2023-03-07T00:36:50.811Z,94363
2023-03-07T00:37:59.545Z,94359
2023-03-07T00:39:09.178Z,94361
2023-03-07T00:40:16.847Z,94359
2023-03-07T00:41:25.504Z,94357
2023-03-07T00:42:34.160Z,94358
2023-03-07T00:43:43.875Z,94353
2023-03-07T00:44:53.571Z,94352
2023-03-07T00:46:02.263Z,94357
2023-03-07T00:47:10.878Z,94350
2023-03-07T00:48:23.299Z,94350
2023-03-07T00:49:29.294Z,94354
2023-03-07T00:50:38.960Z,94352
2023-03-07T00:51:47.647Z,94352
2023-03-07T00:52:57.340Z,94353
2023-03-07T00:54:07.099Z,94354
2023-03-07T00:55:16.742Z,94352
2023-03-07T00:56:25.414Z,94347
2023-03-07T00:57:35.099Z,94341
2023-03-07T00:58:42.787Z,94346
2023-03-07T00:59:51.458Z,94343
2023-03-07T01:01:00.249Z,94339
2023-03-07T01:02:08.809Z,94332
2023-03-07T01:03:18.497Z,94330
2023-03-07T01:04:26.245Z,94333
2023-03-07T01:05:34.850Z,94329
2023-03-07T01:06:44.502Z,94332
2023-03-07T01:07:53.171Z,94335
2023-03-07T01:09:01.865Z,94334
2023-03-07T01:10:11.544Z,94336
2023-03-07T01:11:21.182Z,94332
2023-03-07T01:12:30.862Z,94335
2023-03-07T01:13:39.561Z,94334
2023-03-07T01:14:49.231Z,94332
2023-03-07T01:15:58.907Z,94330
2023-03-07T01:17:06.555Z,94329
2023-03-07T01:18:16.242Z,94327
2023-03-07T01:19:26.011Z,94328
2023-03-07T01:20:34.695Z,94327
2023-03-07T01:21:44.367Z,94330
2023-03-07T01:22:52.022Z,94327
2023-03-07T01:24:01.704Z,94323
2023-03-07T01:25:11.413Z,94325
2023-03-07T01:26:20.101Z,94326
2023-03-07T01:27:29.731Z,94322
2023-03-07T01:28:39.402Z,94320
2023-03-07T01:29:48.047Z,94321
2023-03-07T01:30:57.723Z,94321
2023-03-07T01:32:05.581Z,94324
2023-03-07T01:33:14.076Z,94320
2023-03-07T01:34:23.776Z,94315
2023-03-07T01:35:33.530Z,94312
2023-03-07T01:36:42.226Z,94311
2023-03-07T01:37:51.793Z,94312
2023-03-07T01:39:00.506Z,94313
2023-03-07T01:40:10.168Z,94315
2023-03-07T01:41:19.850Z,94309
2023-03-07T01:42:28.658Z,94306
2023-03-07T01:43:38.191Z,94306
2023-03-07T01:44:46.935Z,94305
2023-03-07T01:45:55.615Z,94308
2023-03-07T01:47:03.254Z,94311
2023-03-07T01:48:11.988Z,94310
2023-03-07T01:49:21.685Z,94312
2023-03-07T01:50:30.350Z,94308
2023-03-07T01:51:39.020Z,94306
2023-03-07T01:52:48.673Z,94307
2023-03-07T01:53:56.326Z,94305
2023-03-07T01:55:05.003Z,94301
2023-03-07T01:56:13.653Z,94299
2023-03-07T01:57:22.311Z,94300
2023-03-07T01:58:30.993Z,94299
2023-03-07T01:59:39.687Z,94294
2023-03-07T02:00:48.338Z,94297
2023-03-07T02:01:58.081Z,94295
2023-03-07T02:03:06.654Z,94300
2023-03-07T02:04:15.356Z,94295
2023-03-07T02:05:24.019Z,94295
2023-03-07T02:06:33.663Z,94296
2023-03-07T02:07:43.339Z,94291
2023-03-07T02:08:51.987Z,94293
2023-03-07T02:10:01.703Z,94281
2023-03-07T02:11:11.363Z,94281
2023-03-07T02:12:19.257Z,94285
2023-03-07T02:13:28.837Z,94282
2023-03-07T02:14:37.660Z,94281
2023-03-07T02:15:47.287Z,94279
2023-03-07T02:16:56.942Z,94274
2023-03-07T02:18:04.700Z,94274
2023-03-07T02:19:14.321Z,94275
2023-03-07T02:20:24.024Z,94274
2023-03-07T02:21:32.766Z,94277
2023-03-07T02:22:41.410Z,94275
2023-03-07T02:23:50.254Z,94274
2023-03-07T02:24:59.936Z,94279
2023-03-07T02:26:09.642Z,94277
2023-03-07T02:27:18.308Z,94278
2023-03-07T02:28:27.003Z,94278
2023-03-07T02:29:36.702Z,94278
2023-03-07T02:30:45.382Z,94276
2023-03-07T02:31:55.021Z,94286
2023-03-07T02:33:03.678Z,94280
2023-03-07T02:34:13.344Z,94283
2023-03-07T02:35:23.025Z,94276
2023-03-07T02:36:32.683Z,94279
2023-03-07T02:37:41.342Z,94277
2023-03-07T02:38:49.993Z,94279
2023-03-07T02:39:58.698Z,94275
2023-03-07T02:41:08.340Z,94273
2023-03-07T02:42:18.004Z,94278
2023-03-07T02:43:26.653Z,94272
2023-03-07T02:44:35.330Z,94279
2023-03-07T02:45:45.015Z,94286
2023-03-07T02:46:54.720Z,94281
2023-03-07T02:48:05.418Z,94284
2023-03-07T02:49:14.026Z,94276
2023-03-07T02:50:22.689Z,94280
2023-03-07T02:51:31.363Z,94284
2023-03-07T02:52:39.000Z,94285
2023-03-07T02:53:48.669Z,94285
2023-03-07T02:54:58.367Z,94280
2023-03-07T02:56:06.013Z,94287
2023-03-07T02:57:14.671Z,94284
2023-03-07T02:58:23.348Z,94281
2023-03-07T03:02:49.049Z,94283
2023-03-07T03:03:58.699Z,94280
2023-03-07T03:05:08.392Z,94278
2023-03-07T03:06:17.046Z,94277
2023-03-07T03:07:26.723Z,94281
2023-03-07T03:08:34.376Z,94276
2023-03-07T03:09:43.058Z,94278
2023-03-07T03:10:52.748Z,94278
2023-03-07T03:12:00.398Z,94279
2023-03-07T03:13:10.073Z,94277
2023-03-07T03:14:19.766Z,94277
2023-03-07T03:15:28.453Z,94271
2023-03-07T03:16:38.120Z,94279
2023-03-07T03:17:45.788Z,94278
2023-03-07T03:18:55.461Z,94277
2023-03-07T03:20:05.147Z,94276
2023-03-07T03:21:13.845Z,94273
2023-03-07T03:22:22.562Z,94271
2023-03-07T03:23:31.263Z,94270
2023-03-07T03:24:39.916Z,94269
2023-03-07T03:25:49.636Z,94272
2023-03-07T03:26:58.296Z,94272
2023-03-07T03:28:06.984Z,94268
2023-03-07T03:29:16.663Z,94270
2023-03-07T03:30:24.323Z,94268
2023-03-07T03:31:33.121Z,94270
2023-03-07T03:32:42.737Z,94265
2023-03-07T03:33:51.383Z,94267
2023-03-07T03:35:01.124Z,94271
2023-03-07T03:36:10.871Z,94264
2023-03-07T03:37:19.490Z,94264
2023-03-07T03:38:29.199Z,94264
2023-03-07T03:39:36.883Z,94264
2023-03-07T03:40:45.659Z,94264
2023-03-07T03:41:54.348Z,94271
2023-03-07T03:43:03.008Z,94260
2023-03-07T03:44:12.659Z,94262
2023-03-07T03:45:19.296Z,94257
2023-03-07T03:46:27.990Z,94258
2023-03-07T03:47:37.666Z,94262
2023-03-07T03:48:46.363Z,94259
2023-03-07T03:49:56.027Z,94255
2023-03-07T03:51:04.854Z,94261
2023-03-07T03:52:14.414Z,94261
2023-03-07T03:53:24.101Z,94256
2023-03-07T03:54:31.746Z,94259
2023-03-07T03:55:39.410Z,94256
2023-03-07T03:56:49.126Z,94255
2023-03-07T03:57:57.766Z,94256
2023-03-07T03:59:06.428Z,94258
2023-03-07T04:00:15.135Z,94257
2023-03-07T04:01:25.814Z,94260
2023-03-07T04:02:35.576Z,94256
2023-03-07T04:03:43.141Z,94257
2023-03-07T04:04:51.804Z,94253
2023-03-07T04:06:01.459Z,94257
2023-03-07T04:07:09.178Z,94254
2023-03-07T04:08:18.865Z,94254
2023-03-07T04:09:27.533Z,94250
2023-03-07T04:10:36.206Z,94251
2023-03-07T04:11:45.953Z,94248
2023-03-07T04:12:53.624Z,94246
2023-03-07T04:14:03.290Z,94244
2023-03-07T04:15:12.977Z,94241
2023-03-07T04:16:20.725Z,94244
2023-03-07T04:17:29.339Z,94240
2023-03-07T04:18:38.023Z,94237
2023-03-07T04:19:47.684Z,94241
2023-03-07T04:20:57.355Z,94241
2023-03-07T04:22:06.095Z,94245
2023-03-07T04:23:14.788Z,94244
2023-03-07T04:24:24.452Z,94242
2023-03-07T04:25:33.142Z,94242
2023-03-07T04:26:41.806Z,94234
2023-03-07T04:27:50.496Z,94235
2023-03-07T04:29:00.149Z,94238
2023-03-07T04:30:09.828Z,94237
2023-03-07T04:31:18.677Z,94234
2023-03-07T04:32:27.322Z,94232
2023-03-07T04:33:35.996Z,94234
2023-03-07T04:34:43.650Z,94230
2023-03-07T04:35:53.336Z,94233
2023-03-07T04:37:03.031Z,94232
2023-03-07T04:38:11.694Z,94230
2023-03-07T04:39:19.408Z,94234
2023-03-07T04:40:29.050Z,94226
2023-03-07T04:41:38.773Z,94222
2023-03-07T04:42:47.483Z,94226
2023-03-07T04:43:57.126Z,94225
2023-03-07T04:45:06.783Z,94228
2023-03-07T04:46:16.588Z,94224
2023-03-07T04:47:26.171Z,94229
2023-03-07T04:48:34.898Z,94231
2023-03-07T04:49:44.611Z,94224
2023-03-07T04:50:52.285Z,94222
2023-03-07T04:51:59.989Z,94225
2023-03-07T04:53:09.656Z,94233
2023-03-07T04:54:18.325Z,94229
2023-03-07T04:55:28.018Z,94224
2023-03-07T04:56:37.654Z,94228
2023-03-07T04:57:45.396Z,94229
2023-03-07T04:58:55.079Z,94224
2023-03-07T05:00:03.765Z,94230
2023-03-07T05:01:13.496Z,94234
2023-03-07T05:02:22.196Z,94225
2023-03-07T05:03:30.858Z,94226
2023-03-07T05:04:40.602Z,94225
2023-03-07T05:05:50.248Z,94220
2023-03-07T05:06:58.954Z,94231
2023-03-07T05:08:08.632Z,94223
2023-03-07T05:09:18.427Z,94228
2023-03-07T05:10:28.196Z,94229
2023-03-07T05:11:36.891Z,94233
2023-03-07T05:12:46.623Z,94233
2023-03-07T05:13:56.278Z,94247
2023-03-07T05:15:03.952Z,94240
2023-03-07T05:16:13.711Z,94231
2023-03-07T05:17:23.308Z,94231
2023-03-07T05:18:30.988Z,94236
2023-03-07T05:19:39.649Z,94235
2023-03-07T05:20:49.309Z,94235
2023-03-07T05:21:57.986Z,94231
2023-03-07T05:23:07.702Z,94239
2023-03-07T05:24:15.364Z,94241
2023-03-07T05:25:25.055Z,94243
2023-03-07T05:26:34.718Z,94237
2023-03-07T05:27:42.434Z,94237
2023-03-07T05:28:52.090Z,94241
2023-03-07T05:30:00.748Z,94233
2023-03-07T05:31:09.503Z,94232
2023-03-07T05:32:19.140Z,94231
2023-03-07T05:33:28.832Z,94230
2023-03-07T05:34:37.605Z,94234
2023-03-07T05:35:47.290Z,94237
2023-03-07T05:36:54.957Z,94234
2023-03-07T05:38:03.680Z,94226
2023-03-07T05:39:12.352Z,94232
2023-03-07T05:40:21.010Z,94227
2023-03-07T05:41:30.667Z,94239
2023-03-07T05:42:38.345Z,94229
2023-03-07T05:43:48.018Z,94231
2023-03-07T05:44:57.678Z,94229
2023-03-07T05:46:05.413Z,94230
2023-03-07T05:47:14.014Z,94231
2023-03-07T05:48:23.704Z,94228
2023-03-07T05:49:33.404Z,94225
2023-03-07T05:50:43.045Z,94229
2023-03-07T05:51:50.714Z,94229
2023-03-07T05:53:00.383Z,94232
2023-03-07T05:54:09.120Z,94228
2023-03-07T05:55:16.768Z,94228
2023-03-07T05:56:25.421Z,94227
2023-03-07T05:57:34.154Z,94225
2023-03-07T05:58:41.874Z,94229
2023-03-07T05:59:51.581Z,94222
2023-03-07T06:01:01.218Z,94226
2023-03-07T06:02:09.858Z,94224
2023-03-07T06:03:19.596Z,94226
2023-03-07T06:04:28.261Z,94222
2023-03-07T06:05:36.921Z,94218
2023-03-07T06:06:45.595Z,94221
2023-03-07T06:07:55.287Z,94221
2023-03-07T06:09:04.988Z,94223
2023-03-07T06:10:13.652Z,94224
2023-03-07T06:11:23.329Z,94222
2023-03-07T06:12:32.991Z,94221
2023-03-07T06:13:41.701Z,94220
2023-03-07T06:14:50.367Z,94225
2023-03-07T06:16:00.138Z,94221
2023-03-07T06:17:09.742Z,94225
2023-03-07T06:18:19.426Z,94226
2023-03-07T06:19:28.105Z,94221
2023-03-07T06:20:36.746Z,94219
2023-03-07T06:21:46.418Z,94220
2023-03-07T06:22:54.141Z,94224
2023-03-07T06:24:03.874Z,94228
2023-03-07T06:25:13.519Z,94223
2023-03-07T06:26:22.198Z,94224
2023-03-07T06:27:31.864Z,94222
2023-03-07T06:28:40.562Z,94221
2023-03-07T06:29:49.225Z,94227
2023-03-07T06:30:59.024Z,94225
2023-03-07T06:32:06.800Z,94222
2023-03-07T06:33:16.404Z,94221
2023-03-07T06:34:25.064Z,94230
2023-03-07T06:35:33.901Z,94230
2023-03-07T06:36:43.542Z,94234
2023-03-07T06:37:53.197Z,94233
2023-03-07T06:39:02.911Z,94227
2023-03-07T06:40:12.564Z,94233
2023-03-07T06:41:22.229Z,94238
2023-03-07T06:42:30.892Z,94238
2023-03-07T06:43:40.605Z,94232
2023-03-07T06:44:48.247Z,94232
2023-03-07T06:45:57.013Z,94229
2023-03-07T06:47:06.596Z,94233
2023-03-07T06:48:14.317Z,94225
2023-03-07T06:49:23.949Z,94238
2023-03-07T06:50:35.343Z,94232
2023-03-07T06:51:41.336Z,94228
2023-03-07T06:52:51.016Z,94229
2023-03-07T06:53:58.741Z,94229
2023-03-07T06:55:07.405Z,94234
2023-03-07T06:56:17.082Z,94228
2023-03-07T06:57:26.743Z,94231
2023-03-07T06:58:35.490Z,94232
2023-03-07T06:59:44.146Z,94232
2023-03-07T07:00:53.864Z,94234
2023-03-07T07:02:02.721Z,94236
2023-03-07T07:03:10.331Z,94226
2023-03-07T07:04:18.090Z,94230
2023-03-07T07:05:28.686Z,94228
2023-03-07T07:06:36.374Z,94236
2023-03-07T07:07:45.055Z,94230
2023-03-07T07:08:53.731Z,94232
2023-03-07T07:10:02.419Z,94234
2023-03-07T07:11:12.141Z,94232
2023-03-07T07:12:21.783Z,94241
2023-03-07T07:13:31.510Z,94237
2023-03-07T07:14:41.203Z,94232
2023-03-07T07:15:49.860Z,94235
2023-03-07T07:16:58.520Z,94230
2023-03-07T07:18:07.164Z,94232
2023-03-07T07:19:15.845Z,94233
2023-03-07T07:20:25.612Z,94227
2023-03-07T07:21:35.153Z,94231
2023-03-07T07:22:44.833Z,94229
2023-03-07T07:23:54.529Z,94231
2023-03-07T07:25:03.191Z,94233
2023-03-07T07:26:11.845Z,94230
2023-03-07T07:27:21.518Z,94228
2023-03-07T07:28:31.199Z,94235
2023-03-07T07:29:40.889Z,94226
2023-03-07T07:30:49.566Z,94226
2023-03-07T07:31:58.533Z,94219
2023-03-07T07:33:08.037Z,94226
2023-03-07T07:34:15.635Z,94223
2023-03-07T07:35:24.382Z,94225
2023-03-07T07:36:34.125Z,94215
2023-03-07T07:37:43.774Z,94223
2023-03-07T07:38:53.451Z,94225
2023-03-07T07:40:03.106Z,94218
2023-03-07T07:41:11.824Z,94215
2023-03-07T07:42:21.478Z,94216
2023-03-07T07:43:29.130Z,94219
2023-03-07T07:44:37.855Z,94223
2023-03-07T07:45:46.526Z,94215
2023-03-07T07:46:55.183Z,94211
2023-03-07T07:48:04.855Z,94215
2023-03-07T07:49:14.565Z,94212
2023-03-07T07:50:24.202Z,94210
2023-03-07T07:51:32.858Z,94211
2023-03-07T07:52:42.942Z,94210
2023-03-07T07:53:52.992Z,94208
2023-03-07T07:55:02.857Z,94205
2023-03-07T07:56:12.688Z,94205
2023-03-07T07:57:22.833Z,94200
2023-03-07T07:58:32.292Z,94204
2023-03-07T07:59:41.170Z,94202
2023-03-07T08:00:50.921Z,94206
2023-03-07T08:01:58.673Z,94207
2023-03-07T08:03:08.554Z,94211
2023-03-07T08:04:17.215Z,94203
2023-03-07T08:05:25.914Z,94214
2023-03-07T08:06:35.561Z,94201
2023-03-07T08:07:45.257Z,94203
2023-03-07T08:08:54.886Z,94202
2023-03-07T08:10:05.671Z,94199
2023-03-07T08:11:14.321Z,94198
2023-03-07T08:12:24.010Z,94207
2023-03-07T08:13:32.679Z,94206
2023-03-07T08:14:42.344Z,94201
2023-03-07T08:15:52.036Z,94205
2023-03-07T08:17:00.706Z,94200
2023-03-07T08:18:10.367Z,94208
2023-03-07T08:19:20.043Z,94211
2023-03-07T08:20:27.742Z,94204
2023-03-07T08:21:37.445Z,94198
2023-03-07T08:22:46.051Z,94201
2023-03-07T08:23:54.747Z,94203
2023-03-07T08:25:04.421Z,94206
2023-03-07T08:26:14.183Z,94200
2023-03-07T08:27:22.981Z,94201
2023-03-07T08:28:32.812Z,94198
2023-03-07T08:29:42.664Z,94197
2023-03-07T08:30:52.544Z,94197
2023-03-07T08:32:02.466Z,94201
2023-03-07T08:33:10.130Z,94198
2023-03-07T08:34:18.939Z,94191
2023-03-07T08:35:28.871Z,94192
2023-03-07T08:36:37.642Z,94188
2023-03-07T08:37:46.313Z,94188
2023-03-07T08:38:54.081Z,94188
2023-03-07T08:40:02.752Z,94192
2023-03-07T08:41:12.328Z,94188
2023-03-07T08:42:21.035Z,94193
2023-03-07T08:43:29.640Z,94197
2023-03-07T08:44:39.331Z,94207
2023-03-07T08:45:49.037Z,94199
2023-03-07T08:46:57.687Z,94194
2023-03-07T08:48:06.361Z,94194
2023-03-07T08:49:15.993Z,94195
2023-03-07T08:50:25.953Z,94200
2023-03-07T08:51:35.321Z,94199
2023-03-07T08:52:44.020Z,94187
2023-03-07T08:53:53.669Z,94186
2023-03-07T08:55:02.386Z,94180
2023-03-07T08:56:12.092Z,94180
2023-03-07T08:57:21.726Z,94180
2023-03-07T08:58:31.388Z,94186
2023-03-07T08:59:41.090Z,94191
2023-03-07T09:00:49.726Z,94175
2023-03-07T09:01:58.425Z,94181
2023-03-07T09:03:08.043Z,94194
2023-03-07T09:04:16.827Z,94180
2023-03-07T09:05:26.496Z,94171
2023-03-07T09:06:35.141Z,94180
2023-03-07T09:07:43.787Z,94184
2023-03-07T09:08:52.446Z,94185
2023-03-07T09:10:00.106Z,94173
2023-03-07T09:11:08.805Z,94179
2023-03-07T09:12:18.517Z,94169
2023-03-07T09:13:28.160Z,94184
2023-03-07T09:14:38.845Z,94180
2023-03-07T09:15:48.519Z,94185
2023-03-07T09:16:58.181Z,94178
2023-03-07T09:18:07.847Z,94171
2023-03-07T09:19:15.497Z,94171
2023-03-07T09:20:23.204Z,94167
2023-03-07T09:21:32.857Z,94167
2023-03-07T09:22:41.505Z,94169
2023-03-07T09:23:51.175Z,94163
2023-03-07T09:24:59.848Z,94171
2023-03-07T09:26:08.535Z,94168
2023-03-07T09:27:18.199Z,94167
2023-03-07T09:28:26.891Z,94161
2023-03-07T09:29:36.654Z,94177
2023-03-07T09:30:46.307Z,94168
2023-03-07T09:31:53.980Z,94152
2023-03-07T09:33:02.638Z,94160
2023-03-07T09:34:11.296Z,94155
2023-03-07T09:35:19.956Z,94161
2023-03-07T09:36:29.660Z,94173
2023-03-07T09:37:38.336Z,94164
2023-03-07T09:38:48.008Z,94160
2023-03-07T09:39:58.698Z,94155
2023-03-07T09:41:06.313Z,94158
2023-03-07T09:42:15.026Z,94153
2023-03-07T09:43:23.677Z,94143
2023-03-07T09:44:32.366Z,94152
2023-03-07T09:45:50.952Z,94147
2023-03-07T09:47:00.587Z,94154
2023-03-07T09:48:08.287Z,94138
2023-03-07T09:49:17.989Z,94140
2023-03-07T09:50:27.787Z,94145
2023-03-07T09:51:37.501Z,94138
2023-03-07T09:52:47.337Z,94141
2023-03-07T09:53:55.990Z,94142
2023-03-07T09:55:05.754Z,94132
2023-03-07T09:56:15.521Z,94132
2023-03-07T09:57:24.218Z,94137
2023-03-07T09:58:33.029Z,94136
2023-03-07T09:59:42.733Z,94129
2023-03-07T10:00:52.447Z,94126
2023-03-07T10:02:02.138Z,94125
2023-03-07T10:03:10.898Z,94138
2023-03-07T10:04:20.638Z,94124
2023-03-07T10:05:30.371Z,94131
2023-03-07T10:06:40.113Z,94118
2023-03-07T10:07:48.796Z,94124
2023-03-07T10:08:57.584Z,94119
2023-03-07T10:10:06.309Z,94117
2023-03-07T10:11:16.105Z,94114
2023-03-07T10:12:24.792Z,94116
2023-03-07T10:13:34.501Z,94123
2023-03-07T10:14:44.229Z,94121
2023-03-07T10:15:53.034Z,94109
2023-03-07T10:17:01.679Z,94104
2023-03-07T10:18:11.375Z,94102
2023-03-07T10:19:21.086Z,94109
2023-03-07T10:20:30.830Z,94105
2023-03-07T10:21:39.683Z,94113
2023-03-07T10:22:49.420Z,94094
2023-03-07T10:23:59.151Z,94101
2023-03-07T10:25:08.116Z,94103
2023-03-07T10:26:16.853Z,94087
2023-03-07T10:27:26.525Z,94103
2023-03-07T10:28:35.194Z,94100
2023-03-07T10:29:44.871Z,94100
2023-03-07T10:30:54.576Z,94085
2023-03-07T10:32:04.338Z,94081
2023-03-07T10:33:14.008Z,94074
2023-03-07T10:34:27.228Z,94080
2023-03-07T10:35:35.487Z,94084
2023-03-07T10:36:45.255Z,94074
2023-03-07T10:37:53.943Z,94065
2023-03-07T10:39:03.651Z,94061
2023-03-07T10:40:13.381Z,94062
2023-03-07T10:41:23.094Z,94079
2023-03-07T10:42:31.760Z,94078
2023-03-07T10:43:40.500Z,94060
2023-03-07T10:44:49.174Z,94059
2023-03-07T10:45:58.895Z,94056
2023-03-07T10:47:09.551Z,94059
2023-03-07T10:48:19.186Z,94058
2023-03-07T10:49:28.871Z,94056
2023-03-07T10:50:37.581Z,94057
2023-03-07T10:51:46.283Z,94056
2023-03-07T10:52:54.992Z,94049
2023-03-07T10:54:02.720Z,94051
2023-03-07T10:55:12.435Z,94043
2023-03-07T10:56:21.107Z,94051
2023-03-07T10:57:28.781Z,94049
2023-03-07T10:58:38.473Z,94039
2023-03-07T10:59:47.134Z,94035
2023-03-07T11:00:56.937Z,94050
2023-03-07T11:02:05.597Z,94041
2023-03-07T11:03:14.252Z,94034
2023-03-07T11:04:23.983Z,94033
2023-03-07T11:05:33.625Z,94048
2023-03-07T11:06:42.329Z,94026
2023-03-07T11:07:52.004Z,94024
2023-03-07T11:09:01.304Z,94021
2023-03-07T11:10:09.351Z,94015
2023-03-07T11:11:18.028Z,94015
2023-03-07T11:12:27.724Z,94015
2023-03-07T11:13:37.415Z,94019
2023-03-07T11:14:46.089Z,94008
2023-03-07T11:16:06.172Z,94008
2023-03-07T11:17:05.419Z,94006
2023-03-07T11:18:14.134Z,94003
2023-03-07T11:19:22.781Z,94010
2023-03-07T11:20:31.456Z,94008
2023-03-07T11:21:41.145Z,94003
2023-03-07T11:22:50.855Z,93994
2023-03-07T11:24:00.613Z,93988
2023-03-07T11:25:09.253Z,94000
2023-03-07T11:26:18.935Z,93995
2023-03-07T11:27:26.636Z,93989
2023-03-07T11:28:35.314Z,93987
2023-03-07T11:29:43.978Z,93986
2023-03-07T11:30:53.722Z,93988
2023-03-07T11:32:05.587Z,93990
2023-03-07T11:33:12.062Z,93991
2023-03-07T11:34:21.774Z,93984
2023-03-07T11:35:31.503Z,93977
2023-03-07T11:36:40.159Z,93975
2023-03-07T11:37:49.894Z,93976
2023-03-07T11:38:58.607Z,93973
2023-03-07T11:40:07.298Z,93975
2023-03-07T11:41:17.015Z,93970
2023-03-07T11:42:24.754Z,93966
2023-03-07T11:43:34.423Z,93970
2023-03-07T11:44:44.181Z,93963
2023-03-07T11:45:51.810Z,93970
2023-03-07T11:47:00.504Z,93962
2023-03-07T11:48:09.274Z,93958
2023-03-07T11:49:21.423Z,93969
2023-03-07T11:50:28.653Z,93958
2023-03-07T11:51:38.325Z,93962
2023-03-07T11:52:47.040Z,93960
2023-03-07T11:53:56.738Z,93954
2023-03-07T11:55:05.417Z,93955
2023-03-07T11:56:14.102Z,93949
2023-03-07T11:57:22.786Z,93958
2023-03-07T11:58:32.477Z,93954
2023-03-07T11:59:42.150Z,93948
2023-03-07T12:00:50.835Z,93957
2023-03-07T12:01:59.515Z,93949
2023-03-07T12:03:09.257Z,93948
2023-03-07T12:04:17.900Z,93942
2023-03-07T12:05:26.593Z,93947
2023-03-07T12:06:35.306Z,93946
2023-03-07T12:07:43.940Z,93935
2023-03-07T12:08:53.644Z,93936
2023-03-07T12:10:02.322Z,93934
2023-03-07T12:11:10.979Z,93937
2023-03-07T12:12:20.677Z,93938
2023-03-07T12:13:28.521Z,93939
2023-03-07T12:14:37.081Z,93934
2023-03-07T12:15:45.816Z,93922
2023-03-07T12:16:54.481Z,93916
2023-03-07T12:18:03.146Z,93920
2023-03-07T12:19:11.858Z,93921
2023-03-07T12:20:20.509Z,93922
2023-03-07T12:21:30.210Z,93909
2023-03-07T12:22:37.912Z,93914
2023-03-07T12:23:46.600Z,93914
2023-03-07T12:24:56.275Z,93913
2023-03-07T12:26:05.949Z,93922
2023-03-07T12:27:15.616Z,93911
2023-03-07T12:28:25.351Z,93914
2023-03-07T12:29:34.024Z,93908
2023-03-07T12:30:41.681Z,93909
2023-03-07T12:31:51.526Z,93899
2023-03-07T12:33:00.177Z,93896
2023-03-07T12:34:09.774Z,93885
2023-03-07T12:35:18.427Z,93889
2023-03-07T12:36:27.140Z,93899
2023-03-07T12:37:36.752Z,93900
2023-03-07T12:38:44.577Z,93893
2023-03-07T12:39:54.210Z,93878
2023-03-07T12:41:03.930Z,93889
2023-03-07T12:42:12.636Z,93895
2023-03-07T12:43:22.314Z,93890
2023-03-07T12:44:32.020Z,93891
2023-03-07T12:45:40.837Z,93885
2023-03-07T12:46:50.397Z,93881
2023-03-07T12:48:00.127Z,93889
2023-03-07T12:49:08.845Z,93900
2023-03-07T12:50:17.581Z,93884
2023-03-07T12:51:26.767Z,93881
2023-03-07T12:52:35.924Z,93884
2023-03-07T12:53:44.591Z,93880
2023-03-07T12:54:53.300Z,93883
2023-03-07T12:56:02.948Z,93881
2023-03-07T12:57:10.626Z,93885
2023-03-07T12:58:19.280Z,93885
2023-03-07T12:59:27.993Z,93874
2023-03-07T13:00:37.659Z,93878
2023-03-07T13:01:47.326Z,93883
2023-03-07T13:02:55.979Z,93886
2023-03-07T13:04:05.788Z,93879
2023-03-07T13:05:15.374Z,93883
2023-03-07T13:06:25.077Z,93892
2023-03-07T13:07:33.753Z,93893
2023-03-07T13:08:43.450Z,93880
2023-03-07T13:09:53.172Z,93890
2023-03-07T13:11:02.903Z,93887
2023-03-07T13:12:12.555Z,93887
2023-03-07T13:13:22.242Z,93878
2023-03-07T13:14:31.949Z,93894
2023-03-07T13:15:39.686Z,93880
2023-03-07T13:16:49.472Z,93885
2023-03-07T13:17:59.119Z,93891
2023-03-07T13:19:08.831Z,93886
2023-03-07T13:20:18.523Z,93871
2023-03-07T13:21:26.329Z,93865
2023-03-07T13:22:34.949Z,93872
2023-03-07T13:23:44.677Z,93870
2023-03-07T13:24:53.392Z,93870
2023-03-07T13:26:03.107Z,93870
2023-03-07T13:27:11.812Z,93866
2023-03-07T13:28:21.476Z,93861
2023-03-07T13:29:31.140Z,93863
2023-03-07T13:30:39.891Z,93865
2023-03-07T13:31:49.565Z,93858
2023-03-07T13:32:59.259Z,93870
2023-03-07T13:34:06.935Z,93867
2023-03-07T13:35:15.652Z,93859
2023-03-07T13:36:23.302Z,93868
2023-03-07T13:37:31.950Z,93854
2023-03-07T13:38:40.724Z,93860
2023-03-07T13:39:50.435Z,93872
2023-03-07T13:40:59.115Z,93859
2023-03-07T13:42:08.790Z,93861
2023-03-07T13:43:16.485Z,93854
2023-03-07T13:44:26.182Z,93847
2023-03-07T13:45:34.874Z,93847
2023-03-07T13:46:44.574Z,93845
2023-03-07T13:47:54.237Z,93843
2023-03-07T13:49:02.921Z,93842
2023-03-07T13:50:12.653Z,93832
2023-03-07T13:51:22.334Z,93833
2023-03-07T13:52:31.023Z,93822
2023-03-07T13:53:39.723Z,93823
2023-03-07T13:54:49.377Z,93823
2023-03-07T13:55:58.067Z,93826
2023-03-07T13:57:07.795Z,93827
2023-03-07T13:58:17.450Z,93835
2023-03-07T13:59:27.241Z,93818
2023-03-07T14:00:36.797Z,93828
2023-03-07T14:01:45.548Z,93827
2023-03-07T14:02:55.191Z,93830
2023-03-07T14:04:04.850Z,93823
2023-03-07T14:05:13.532Z,93839
2023-03-07T14:06:23.257Z,93827
2023-03-07T14:07:32.937Z,93816
2023-03-07T14:08:41.612Z,93815
2023-03-07T14:09:51.352Z,93823
2023-03-07T14:11:00.082Z,93821
2023-03-07T14:12:08.792Z,93812
2023-03-07T14:13:18.442Z,93818
2023-03-07T14:14:27.114Z,93815
2023-03-07T14:15:35.976Z,93813
2023-03-07T14:16:44.575Z,93811
2023-03-07T14:17:54.262Z,93810
2023-03-07T14:19:03.954Z,93816
2023-03-07T14:20:11.622Z,93812
2023-03-07T14:21:21.319Z,93811
2023-03-07T14:22:30.005Z,93805
2023-03-07T14:23:38.716Z,93804
2023-03-07T14:24:48.482Z,93805
2023-03-07T14:25:57.190Z,93814
2023-03-07T14:27:05.841Z,93809
2023-03-07T14:28:15.523Z,93812
2023-03-07T14:29:24.265Z,93810
2023-03-07T14:30:33.915Z,93821
2023-03-07T14:31:44.482Z,93816
2023-03-07T14:32:53.981Z,93827
2023-03-07T14:34:03.670Z,93807
2023-03-07T14:35:13.375Z,93809
2023-03-07T14:36:22.079Z,93811
2023-03-07T14:37:31.769Z,93815
2023-03-07T14:38:40.434Z,93828
2023-03-07T14:39:50.149Z,93820
2023-03-07T14:40:59.958Z,93806
2023-03-07T14:42:07.632Z,93809
2023-03-07T14:43:16.342Z,93808
2023-03-07T14:44:26.058Z,93806
2023-03-07T14:45:34.742Z,93808
2023-03-07T14:46:44.491Z,93814
2023-03-07T14:47:53.158Z,93816
2023-03-07T14:49:02.811Z,93820
2023-03-07T14:50:12.517Z,93816
2023-03-07T14:51:21.225Z,93813
2023-03-07T14:52:31.763Z,93815
2023-03-07T14:53:40.614Z,93811